Terminal Aerodrome Forecast
Issued by NWS Cleveland, OH

Home | Current Version | Previous Version | Graphics & Text | Print | Product List | Glossary On
Versions: 1 2 3 4 5 6 7 8 9 10 11 12 13 14 15 16 17 18 19
000
FTUS41 KCLE 180520
TAFCAK
TAF
KCAK 180520Z 1806/1906 03010KT P6SM OVC250
     FM181200 08014G20KT P6SM OVC120
     FM181600 09015G25KT P6SM OVC025
     FM181800 10016G26KT 6SM BR VCSH OVC015
     FM182000 09016G26KT 5SM -SHRA BR OVC007
     FM190200 12018G28KT 5SM -SHRA BR OVC007=

USA.gov is the U.S. government's official web portal to all federal, state and local government web resources and services.